Time;durP1;ratioP1;P1;durP2;ratioP2;P2;SDS_P1;SDS_P2;PMS_P1;PMS_P2;Temp;Humidity;BMP_temperature;BMP_pressure;BME280_temperature;BME280_humidity;BME280_pressure;Samples;Min_cycle;Max_cycle;Signal;HPM_P1;HPM_P2
2021/07/07 00:00:23;;;;;;;;;3.00;3.00;;;;;19.07;51.63;100471.88;4975360;28;49481;-60
2021/07/07 00:02:48;;;;;;;;;5.00;4.00;;;;;19.04;51.37;100472.25;4975821;28;45312;-60
2021/07/07 00:05:14;;;;;;;;;4.00;3.00;;;;;19.00;51.75;100463.84;4975672;28;46230;-60
2021/07/07 00:07:40;;;;;;;;;5.00;3.25;;;;;18.96;52.23;100468.72;4975578;28;45389;-60
2021/07/07 00:10:06;;;;;;;;;4.25;1.75;;;;;18.94;52.11;100469.91;4975474;28;46174;-60
2021/07/07 00:12:32;;;;;;;;;6.00;3.00;;;;;18.93;52.16;100473.59;4975616;28;45490;-60
2021/07/07 00:14:58;;;;;;;;;4.25;3.50;;;;;18.90;52.18;100468.66;4974431;28;75499;-61
2021/07/07 00:17:24;;;;;;;;;4.75;2.00;;;;;18.89;52.53;100477.66;4975479;28;45666;-60
2021/07/07 00:19:49;;;;;;;;;3.50;2.00;;;;;18.86;52.81;100478.03;4974468;28;62191;-60
2021/07/07 00:22:15;;;;;;;;;4.00;3.00;;;;;18.83;52.94;100479.22;4975530;28;45480;-60
2021/07/07 00:34:46;;;;;;;;;3.75;3.00;;;;;18.68;53.24;100485.47;4975510;28;45215;-59
2021/07/07 00:37:12;;;;;;;;;2.00;2.00;;;;;18.64;53.04;100484.19;4973788;28;46155;-60
2021/07/07 00:39:37;;;;;;;;;4.00;2.00;;;;;18.61;53.81;100491.72;4975085;28;45652;-60
2021/07/07 01:05:34;;;;;;;;;4.75;3.50;;;;;18.39;53.83;100492.53;4975086;28;45221;-59
2021/07/07 01:07:59;;;;;;;;;4.00;3.00;;;;;18.40;53.66;100496.03;4975257;28;45247;-60
2021/07/07 01:10:25;;;;;;;;;3.00;2.50;;;;;18.39;53.80;100489.88;4974952;28;45469;-60
2021/07/07 01:12:52;;;;;;;;;5.75;3.00;;;;;18.40;53.78;100493.38;4974923;28;45269;-60
2021/07/07 01:15:18;;;;;;;;;3.50;3.50;;;;;18.39;54.07;100489.06;4974254;28;45310;-59
2021/07/07 01:17:44;;;;;;;;;4.00;4.00;;;;;18.37;54.08;100488.44;4974800;28;45307;-60
2021/07/07 01:20:12;;;;;;;;;3.75;2.25;;;;;18.36;54.13;100492.09;4973538;28;45256;-60
2021/07/07 01:22:38;;;;;;;;;6.00;4.00;;;;;18.35;54.27;100493.13;4974674;28;46166;-59
2021/07/07 01:25:05;;;;;;;;;6.00;3.00;;;;;18.34;53.67;100491.47;4974820;28;45361;-60
2021/07/07 01:27:30;;;;;;;;;5.00;3.75;;;;;18.32;54.00;100496.16;4974807;28;45296;-60
2021/07/07 01:29:56;;;;;;;;;4.75;2.50;;;;;18.31;54.00;100487.34;4974723;28;45286;-60
2021/07/07 01:32:21;;;;;;;;;3.50;3.25;;;;;18.31;54.17;100490.00;4973864;28;65332;-60
2021/07/07 01:34:46;;;;;;;;;3.50;2.25;;;;;18.31;54.73;100489.19;4972538;28;68321;-60
2021/07/07 01:37:12;;;;;;;;;2.00;2.00;;;;;18.30;55.28;100488.34;4973430;28;66657;-61
2021/07/07 01:39:37;;;;;;;;;3.50;3.00;;;;;18.28;54.90;100487.72;4973809;28;63530;-59
2021/07/07 01:42:03;;;;;;;;;4.00;2.75;;;;;18.26;54.86;100483.59;4974371;28;45334;-60
2021/07/07 01:44:28;;;;;;;;;6.50;3.75;;;;;18.26;55.08;100487.09;4974576;28;45329;-60
2021/07/07 01:46:54;;;;;;;;;4.00;3.00;;;;;18.24;54.80;100481.97;4974450;28;45358;-60
2021/07/07 01:49:19;;;;;;;;;3.50;3.25;;;;;18.22;55.06;100493.81;4973555;28;66378;-60
2021/07/07 01:51:44;;;;;;;;;6.00;4.00;;;;;18.21;54.72;100492.97;4973407;28;68933;-60
2021/07/07 01:54:10;;;;;;;;;3.00;3.00;;;;;18.20;55.02;100488.66;4973213;28;73106;-60
2021/07/07 01:56:35;;;;;;;;;3.00;3.00;;;;;18.19;54.95;100486.19;4974172;28;46515;-61
2021/07/07 01:59:00;;;;;;;;;2.50;2.50;;;;;18.17;54.76;100491.69;4973420;28;59151;-60
2021/07/07 02:01:26;;;;;;;;;1.00;1.00;;;;;18.14;54.82;100497.38;4973038;28;74542;-60
2021/07/07 02:03:51;;;;;;;;;3.25;3.00;;;;;18.11;54.72;100491.63;4974190;28;45322;-60
2021/07/07 02:06:17;;;;;;;;;4.25;3.00;;;;;18.07;54.83;100486.69;4973778;28;52767;-59
2021/07/07 02:08:42;;;;;;;;;3.25;3.25;;;;;18.06;54.78;100492.16;4974158;28;45511;-60
2021/07/07 02:11:07;;;;;;;;;4.00;4.00;;;;;18.02;54.74;100482.91;4973780;28;46278;-60
2021/07/07 02:13:33;;;;;;;;;3.00;3.00;;;;;18.00;54.79;100490.28;4972962;28;72560;-60
2021/07/07 02:15:58;;;;;;;;;4.00;4.00;;;;;17.98;55.16;100489.63;4973413;28;58985;-60
2021/07/07 02:18:23;;;;;;;;;3.75;3.75;;;;;17.95;55.01;100490.78;4973558;28;56613;-60
2021/07/07 02:20:49;;;;;;;;;5.50;3.50;;;;;17.94;55.16;100483.81;4972681;28;72781;-59
2021/07/07 02:23:15;;;;;;;;;3.00;2.25;;;;;17.92;54.96;100484.03;4973948;28;45449;-60
2021/07/07 02:25:43;;;;;;;;;3.75;3.00;;;;;17.94;55.13;100491.81;4973951;28;45524;-61
2021/07/07 02:28:09;;;;;;;;;3.00;3.00;;;;;17.92;55.33;100494.66;4991625;28;45606;-60
2021/07/07 02:30:35;;;;;;;;;5.00;3.25;;;;;17.92;55.12;100489.34;4976650;28;45324;-60
2021/07/07 02:33:01;;;;;;;;;3.00;3.00;;;;;17.91;55.27;100487.69;4976748;28;45394;-60
2021/07/07 02:35:28;;;;;;;;;3.25;3.25;;;;;17.90;55.30;100485.22;4975926;28;63895;-60
2021/07/07 02:37:54;;;;;;;;;5.00;4.00;;;;;17.91;55.73;100484.19;4976553;28;45484;-60
2021/07/07 02:40:20;;;;;;;;;3.00;3.00;;;;;17.92;55.73;100493.81;4976228;28;45869;-60
2021/07/07 02:42:45;;;;;;;;;6.50;6.00;;;;;17.92;55.57;100489.34;4976436;28;45295;-60
2021/07/07 02:45:11;;;;;;;;;4.00;4.00;;;;;17.94;55.95;100494.47;4976756;28;45315;-60
2021/07/07 02:47:38;;;;;;;;;4.75;3.75;;;;;17.95;55.29;100488.97;4976655;28;45275;-60
2021/07/07 02:50:05;;;;;;;;;6.50;5.00;;;;;17.93;55.50;100501.63;4976703;28;45367;-60
2021/07/07 02:52:30;;;;;;;;;6.00;3.00;;;;;17.94;55.68;100494.47;4976534;28;45394;-60
2021/07/07 02:54:56;;;;;;;;;4.00;4.00;;;;;17.92;55.54;100494.66;4975744;28;66043;-60
2021/07/07 02:57:21;;;;;;;;;4.00;4.00;;;;;17.92;55.61;100494.66;4976071;28;52118;-60
2021/07/07 02:59:47;;;;;;;;;4.75;4.00;;;;;17.92;55.89;100499.97;4975421;28;73057;-60
2021/07/07 03:02:12;;;;;;;;;4.00;4.00;;;;;17.90;56.06;100506.47;4975956;28;62957;-60
2021/07/07 03:04:37;;;;;;;;;4.25;3.50;;;;;17.88;56.17;100503.19;4975606;28;69311;-60
2021/07/07 03:07:04;;;;;;;;;2.25;2.00;;;;;17.86;56.40;100511.34;4976093;28;50369;-60
2021/07/07 03:09:29;;;;;;;;;3.00;3.00;;;;;17.85;56.36;100522.16;4976307;28;45401;-60
2021/07/07 03:11:55;;;;;;;;;4.00;3.00;;;;;17.81;56.54;100519.03;4975530;28;65387;-59
2021/07/07 03:14:20;;;;;;;;;5.00;5.00;;;;;17.78;56.53;100520.22;4975716;28;62734;-60
2021/07/07 03:16:46;;;;;;;;;5.50;4.75;;;;;17.76;56.42;100526.75;4975121;28;45525;-60
2021/07/07 03:19:11;;;;;;;;;6.75;4.00;;;;;17.73;56.88;100519.97;4975677;28;46673;-59
2021/07/07 03:21:36;;;;;;;;;6.25;4.50;;;;;17.72;57.01;100515.66;4974470;28;61784;-60
2021/07/07 03:24:02;;;;;;;;;5.75;4.00;;;;;17.70;56.83;100517.69;4975313;28;45260;-60
2021/07/07 03:26:27;;;;;;;;;4.25;4.25;;;;;17.67;57.22;100523.38;4975445;28;45474;-59
2021/07/07 03:28:52;;;;;;;;;7.25;5.00;;;;;17.61;57.26;100519.59;4974257;28;67972;-59
2021/07/07 03:31:18;;;;;;;;;5.00;5.00;;;;;17.58;57.14;100519.94;4974246;28;62875;-60
2021/07/07 03:33:43;;;;;;;;;8.25;6.50;;;;;17.55;57.26;100528.28;4974257;28;60639;-61
2021/07/07 03:36:09;;;;;;;;;7.00;6.00;;;;;17.53;57.43;100524.19;4989946;28;45373;-60
2021/07/07 03:38:34;;;;;;;;;8.00;7.00;;;;;17.49;57.22;100524.53;4973296;28;71512;-59
2021/07/07 03:40:59;;;;;;;;;9.00;8.00;;;;;17.48;57.53;100530.03;4973823;28;72268;-60
2021/07/07 03:43:25;;;;;;;;;10.00;7.00;;;;;17.45;57.95;100530.41;4974895;28;45306;-59
2021/07/07 03:45:50;;;;;;;;;8.25;6.00;;;;;17.45;57.52;100530.41;4975124;28;45548;-60
2021/07/07 03:48:15;;;;;;;;;9.00;7.00;;;;;17.41;57.86;100529.13;4974492;28;46000;-60
2021/07/07 03:50:41;;;;;;;;;6.50;6.50;;;;;17.38;58.11;100529.47;4973801;28;70232;-60
2021/07/07 03:53:07;;;;;;;;;7.00;6.25;;;;;17.32;58.19;100531.84;4974802;28;45252;-59
2021/07/07 03:55:33;;;;;;;;;7.25;7.25;;;;;17.29;58.08;100529.56;4975060;28;45355;-60
2021/07/07 03:57:59;;;;;;;;;9.00;7.75;;;;;17.26;58.36;100529.06;4974190;28;46228;-59
2021/07/07 04:00:26;;;;;;;;;8.00;8.00;;;;;17.24;58.30;100531.94;4974357;28;45488;-59
2021/07/07 04:02:52;;;;;;;;;8.00;7.00;;;;;17.19;58.52;100529.81;4974666;28;45393;-60
2021/07/07 04:05:17;;;;;;;;;9.00;7.00;;;;;17.13;58.51;100535.00;4974481;28;45385;-59
2021/07/07 04:07:43;;;;;;;;;7.25;4.00;;;;;17.10;58.65;100535.34;4974308;28;48022;-60
2021/07/07 04:10:09;;;;;;;;;7.00;6.00;;;;;17.07;58.47;100536.56;4974386;28;45788;-60
2021/07/07 04:12:35;;;;;;;;;5.50;5.50;;;;;17.02;58.68;100539.72;4974486;28;45382;-60
2021/07/07 04:15:01;;;;;;;;;6.25;4.00;;;;;16.99;58.72;100542.75;4974526;28;45412;-60
2021/07/07 04:17:26;;;;;;;;;6.25;4.00;;;;;16.97;59.02;100547.41;4973237;28;68422;-61
2021/07/07 04:19:51;;;;;;;;;7.75;6.75;;;;;16.96;59.08;100543.09;4933190;28;1170013;-60
2021/07/07 04:22:17;;;;;;;;;4.00;4.00;;;;;16.95;58.92;100552.06;4975723;28;45179;-60
2021/07/07 04:24:42;;;;;;;;;4.75;3.25;;;;;16.92;59.15;100545.25;4975457;28;45192;-60
2021/07/07 04:27:08;;;;;;;;;5.25;4.00;;;;;16.91;59.23;100543.59;4974576;28;71627;-60
2021/07/07 04:29:33;;;;;;;;;7.25;4.00;;;;;16.89;59.03;100550.13;4975230;28;45275;-59
2021/07/07 04:31:59;;;;;;;;;4.00;4.00;;;;;16.88;59.17;100556.41;4975411;28;45216;-60
2021/07/07 04:34:24;;;;;;;;;4.75;3.00;;;;;16.88;59.64;100564.38;4975538;28;45281;-60
2021/07/07 04:36:50;;;;;;;;;5.25;4.75;;;;;16.87;59.56;100562.72;4975194;28;45970;-60
2021/07/07 04:39:15;;;;;;;;;7.25;4.50;;;;;16.86;59.51;100567.19;4975171;28;45355;-60
2021/07/07 04:41:41;;;;;;;;;5.25;3.25;;;;;16.88;59.55;100567.84;4975474;28;45278;-60
2021/07/07 04:44:06;;;;;;;;;6.00;3.25;;;;;16.90;59.62;100573.81;4975319;28;45494;-60
2021/07/07 04:46:32;;;;;;;;;5.00;3.00;;;;;16.90;59.80;100571.16;4973119;28;69821;-60
2021/07/07 04:48:57;;;;;;;;;4.25;4.00;;;;;16.89;59.73;100564.19;4988203;28;64156;-60
2021/07/07 04:51:22;;;;;;;;;3.75;3.75;;;;;16.91;59.56;100569.34;4974349;28;63556;-60
2021/07/07 04:53:48;;;;;;;;;6.00;4.00;;;;;16.90;59.89;100570.34;4975060;28;45370;-60
2021/07/07 04:56:13;;;;;;;;;5.00;3.00;;;;;16.91;59.91;100572.00;4974937;28;46124;-60
2021/07/07 04:58:41;;;;;;;;;3.00;3.00;;;;;16.91;59.82;100569.34;4974844;28;45412;-60
2021/07/07 05:01:06;;;;;;;;;5.00;4.00;;;;;16.93;59.92;100572.66;4975124;28;45303;-60
2021/07/07 05:03:32;;;;;;;;;4.50;3.50;;;;;16.94;59.72;100576.94;4975079;28;45435;-60
2021/07/07 05:05:57;;;;;;;;;6.00;3.50;;;;;16.94;59.95;100579.59;4974225;28;60925;-59
2021/07/07 05:08:23;;;;;;;;;3.25;3.00;;;;;16.94;59.87;100576.94;4975076;28;45212;-60
2021/07/07 05:10:48;;;;;;;;;6.00;3.50;;;;;16.94;60.14;100590.22;4974899;28;45373;-59
2021/07/07 05:13:13;;;;;;;;;7.25;5.50;;;;;16.97;60.11;100587.22;4973052;28;58389;-59
2021/07/07 05:15:39;;;;;;;;;6.00;4.75;;;;;16.97;60.19;100592.53;4973751;28;73299;-59
2021/07/07 05:18:06;;;;;;;;;5.00;4.00;;;;;16.98;60.18;100599.47;4974219;28;57855;-60
2021/07/07 05:20:31;;;;;;;;;4.50;3.25;;;;;17.01;60.11;100596.47;4974461;28;45378;-60
2021/07/07 05:22:57;;;;;;;;;5.25;4.00;;;;;17.04;60.21;100597.97;4974750;28;45529;-60
2021/07/07 05:25:22;;;;;;;;;5.75;5.25;;;;;17.10;60.01;100607.03;4974725;28;45289;-59
2021/07/07 05:27:48;;;;;;;;;3.50;3.25;;;;;17.12;59.77;100602.38;4973743;28;68634;-60
2021/07/07 05:30:14;;;;;;;;;4.75;4.00;;;;;17.13;60.21;100604.03;4974665;28;45463;-59
2021/07/07 05:32:39;;;;;;;;;5.25;3.00;;;;;17.14;60.21;100595.91;4974809;28;45578;-59
2021/07/07 05:35:05;;;;;;;;;4.00;3.25;;;;;17.19;60.37;100596.19;4974497;28;45393;-60
2021/07/07 05:37:31;;;;;;;;;5.25;3.25;;;;;17.25;60.29;100597.31;4973761;28;45410;-59
2021/07/07 05:39:56;;;;;;;;;5.00;4.75;;;;;17.33;60.25;100602.56;4973528;28;59853;-60
2021/07/07 05:42:21;;;;;;;;;3.50;3.00;;;;;17.40;60.29;100607.16;4973851;28;61538;-60
2021/07/07 05:44:48;;;;;;;;;5.25;3.75;;;;;17.48;59.92;100609.75;4974390;28;45342;-60
2021/07/07 05:47:13;;;;;;;;;3.25;3.00;;;;;17.54;60.31;100606.34;4974196;28;45307;-60
2021/07/07 05:49:38;;;;;;;;;3.00;3.00;;;;;17.63;60.02;100612.41;4974313;28;45376;-60
2021/07/07 05:52:04;;;;;;;;;4.25;2.00;;;;;17.71;59.96;100614.16;4973553;28;63749;-60
2021/07/07 05:54:31;;;;;;;;;3.50;3.00;;;;;17.76;59.82;100612.59;4973997;28;45299;-60
2021/07/07 05:56:56;;;;;;;;;5.00;4.00;;;;;17.81;59.59;100614.72;4974250;28;45382;-60
2021/07/07 05:59:22;;;;;;;;;5.75;4.00;;;;;17.85;59.26;100617.81;4990919;27;45386;-60
2021/07/07 06:01:47;;;;;;;;;3.25;3.25;;;;;17.86;59.43;100622.13;4973262;28;64015;-60
2021/07/07 06:04:12;;;;;;;;;6.50;4.00;;;;;17.86;59.42;100620.31;4973191;28;71377;-60
2021/07/07 06:06:38;;;;;;;;;3.50;3.50;;;;;17.87;59.18;100624.63;4974273;28;45311;-60
2021/07/07 06:09:03;;;;;;;;;4.50;4.00;;;;;17.87;59.38;100619.31;4973744;28;52111;-60
2021/07/07 06:11:29;;;;;;;;;2.25;2.25;;;;;17.87;59.43;100623.78;4974236;28;45455;-59
2021/07/07 06:13:54;;;;;;;;;4.00;3.00;;;;;17.90;59.43;100621.59;4973024;28;67869;-60
2021/07/07 06:16:19;;;;;;;;;4.50;3.25;;;;;17.94;59.48;100619.41;4973385;28;63330;-59
2021/07/07 06:18:45;;;;;;;;;4.00;2.75;;;;;17.99;59.39;100622.38;4973966;28;45618;-60
2021/07/07 06:21:10;;;;;;;;;3.00;3.00;;;;;18.02;59.26;100627.31;4973798;28;45525;-59
2021/07/07 06:23:35;;;;;;;;;5.25;4.75;;;;;18.07;59.28;100624.94;4972991;28;65751;-59
2021/07/07 06:26:01;;;;;;;;;4.25;4.25;;;;;18.13;59.00;100630.53;4973939;28;45334;-60
2021/07/07 06:28:26;;;;;;;;;6.50;4.75;;;;;18.20;59.25;100628.78;4973865;28;45252;-60
2021/07/07 06:30:52;;;;;;;;;4.50;4.00;;;;;18.30;59.00;100636.47;4972963;28;64721;-60
2021/07/07 06:33:17;;;;;;;;;5.25;3.00;;;;;18.38;58.84;100634.53;4973388;28;50881;-60
2021/07/07 06:35:43;;;;;;;;;6.50;5.00;;;;;18.49;58.17;100637.75;4972831;28;68456;-59
2021/07/07 06:38:09;;;;;;;;;7.25;5.50;;;;;18.57;58.31;100642.97;4973877;28;45447;-60
2021/07/07 06:40:34;;;;;;;;;4.00;4.00;;;;;18.65;58.07;100648.19;4973608;28;45350;-60
2021/07/07 06:43:00;;;;;;;;;4.75;4.75;;;;;18.73;58.22;100643.75;4973641;28;45378;-60
2021/07/07 06:45:27;;;;;;;;;4.50;4.00;;;;;18.81;58.21;100644.47;4975124;28;45434;-59
2021/07/07 06:47:52;;;;;;;;;6.00;4.25;;;;;18.92;57.95;100648.47;4973437;28;45425;-60
2021/07/07 06:50:18;;;;;;;;;5.00;5.00;;;;;19.01;57.32;100646.56;4973648;28;45283;-59
2021/07/07 06:52:43;;;;;;;;;6.75;4.00;;;;;19.09;57.26;100653.59;4973261;28;45660;-60
2021/07/07 06:55:09;;;;;;;;;6.50;4.00;;;;;19.16;57.04;100658.97;4973312;28;45281;-60
2021/07/07 06:57:35;;;;;;;;;6.25;4.00;;;;;19.23;56.94;100666.03;4973227;28;45547;-60
2021/07/07 07:00:06;;;;;;;;;5.25;5.00;;;;;19.32;56.78;100668.56;4973334;28;45343;-59
2021/07/07 07:02:32;;;;;;;;;6.75;3.75;;;;;19.38;56.46;100668.63;4971962;28;45369;-60
2021/07/07 07:04:58;;;;;;;;;6.50;5.25;;;;;19.43;56.51;100666.22;4973269;28;45280;-60
2021/07/07 07:07:27;;;;;;;;;4.25;4.00;;;;;19.47;56.22;100674.63;4973314;28;45321;-60
2021/07/07 07:09:53;;;;;;;;;5.00;5.00;;;;;19.48;56.53;100673.63;4973302;28;45209;-60
2021/07/07 07:12:18;;;;;;;;;5.00;5.00;;;;;19.52;56.51;100674.06;4975135;28;46403;-60
2021/07/07 07:14:44;;;;;;;;;5.00;3.75;;;;;19.54;56.34;100680.03;4975600;28;62043;-60
2021/07/07 07:17:09;;;;;;;;;4.75;4.00;;;;;19.59;56.00;100669.63;4976312;28;45307;-60
2021/07/07 07:19:35;;;;;;;;;7.00;4.00;;;;;19.63;56.16;100678.03;4976078;28;45182;-60
2021/07/07 07:22:00;;;;;;;;;6.75;5.25;;;;;19.65;55.70;100671.50;4975627;28;63453;-60
2021/07/07 07:24:30;;;;;;;;;8.50;5.00;;;;;19.68;55.60;100672.97;4976113;28;49126;-59
2021/07/07 07:26:59;;;;;;;;;4.50;4.50;;;;;19.73;55.78;100676.69;4976240;28;45449;-59
2021/07/07 07:29:24;;;;;;;;;9.75;5.50;;;;;19.82;55.35;100679.22;4976208;28;45218;-60
2021/07/07 07:31:50;;;;;;;;;6.00;6.00;;;;;19.87;55.47;100674.94;4976027;28;46037;-60
2021/07/07 07:34:15;;;;;;;;;6.25;4.25;;;;;19.95;55.18;100686.50;4991135;28;45496;-60
2021/07/07 07:36:41;;;;;;;;;5.75;5.75;;;;;20.01;54.61;100696.41;4976204;28;45329;-60
2021/07/07 07:39:09;;;;;;;;;6.00;5.00;;;;;20.05;54.76;100689.66;4975951;28;45699;-60
2021/07/07 07:41:38;;;;;;;;;5.00;5.00;;;;;20.13;53.81;100697.50;4975649;28;46216;-60
2021/07/07 07:44:06;;;;;;;;;3.00;3.00;;;;;20.25;53.76;100702.31;4975847;28;45764;-60
2021/07/07 07:46:31;;;;;;;;;5.00;5.00;;;;;20.36;53.68;100687.59;4976061;28;45296;-60
2021/07/07 07:48:59;;;;;;;;;6.75;6.00;;;;;20.48;54.02;100694.00;4975100;28;65476;-60
2021/07/07 07:51:24;;;;;;;;;5.00;4.00;;;;;20.64;54.16;100692.03;4975762;28;45970;-60
2021/07/07 07:53:50;;;;;;;;;7.00;5.50;;;;;20.80;52.88;100699.72;4974393;28;45343;-61
2021/07/07 07:56:16;;;;;;;;;5.25;5.25;;;;;20.94;52.21;100703.25;4975923;28;45686;-60
2021/07/07 07:58:41;;;;;;;;;6.00;5.50;;;;;21.07;51.65;100694.47;4974715;28;45514;-60
2021/07/07 08:01:06;;;;;;;;;5.25;3.50;;;;;21.22;51.90;100698.78;4974785;28;71583;-60
2021/07/07 08:03:32;;;;;;;;;7.00;6.00;;;;;21.32;51.04;100704.56;4974636;28;72810;-60
2021/07/07 08:05:57;;;;;;;;;6.00;4.75;;;;;21.41;51.29;100703.34;4975381;28;48227;-60
2021/07/07 08:08:22;;;;;;;;;5.00;5.00;;;;;21.52;50.69;100709.94;4975632;28;45376;-60
2021/07/07 08:10:48;;;;;;;;;6.50;4.25;;;;;21.60;50.42;100707.06;4974807;28;68215;-61
2021/07/07 08:13:13;;;;;;;;;4.00;4.00;;;;;21.69;50.27;100710.41;4974627;28;67566;-60
2021/07/07 08:15:39;;;;;;;;;6.00;4.50;;;;;21.73;50.00;100711.63;4974823;28;65252;-60
2021/07/07 08:18:05;;;;;;;;;6.25;5.00;;;;;21.79;49.91;100718.81;4975548;28;45431;-60
2021/07/07 08:20:30;;;;;;;;;8.00;5.00;;;;;21.81;49.87;100718.63;4975126;28;45931;-60
2021/07/07 08:22:56;;;;;;;;;8.25;4.00;;;;;21.85;49.29;100725.22;4975469;28;45371;-60
2021/07/07 08:25:22;;;;;;;;;6.50;5.00;;;;;21.88;49.52;100724.81;5013533;28;45417;-60
2021/07/07 08:27:47;;;;;;;;;9.50;6.00;;;;;21.89;49.63;100723.78;4996739;28;45589;-60
2021/07/07 08:30:13;;;;;;;;;7.00;6.25;;;;;21.91;49.75;100721.72;5000970;27;47220;-60
2021/07/07 08:32:38;;;;;;;;;5.00;4.00;;;;;21.95;49.17;100724.78;4990002;28;45382;-60
2021/07/07 08:35:05;;;;;;;;;11.50;5.50;;;;;21.99;49.12;100725.22;4993361;28;45769;-60
2021/07/07 08:37:30;;;;;;;;;5.75;5.75;;;;;22.05;48.56;100719.00;4995324;28;45332;-60
2021/07/07 08:39:56;;;;;;;;;4.25;4.25;;;;;22.15;48.82;100723.94;4999396;28;46274;-60
2021/07/07 08:42:21;;;;;;;;;4.00;4.00;;;;;22.26;47.91;100720.59;5001104;28;45409;-60
2021/07/07 08:44:47;;;;;;;;;6.00;5.25;;;;;22.41;48.63;100725.75;5014847;27;45727;-60
2021/07/07 08:47:12;;;;;;;;;4.25;4.25;;;;;22.61;47.33;100733.75;4990575;27;45659;-60
2021/07/07 08:49:37;;;;;;;;;6.00;5.00;;;;;22.76;46.78;100735.34;5007956;28;47095;-60
2021/07/07 08:52:03;;;;;;;;;6.00;4.75;;;;;22.81;47.30;100728.31;5010189;28;71977;-61
2021/07/07 08:54:30;;;;;;;;;10.00;5.00;;;;;22.86;47.11;100740.25;5013323;28;45382;-60
2021/07/07 08:56:56;;;;;;;;;5.25;4.00;;;;;22.89;46.79;100745.97;5015362;28;45252;-61
2021/07/07 08:59:21;;;;;;;;;5.00;5.00;;;;;22.92;46.38;100736.72;5015817;27;45998;-61
2021/07/07 09:02:02;;;;;;;;;5.75;4.75;;;;;22.93;46.36;100735.69;5018510;27;45478;-60
2021/07/07 09:04:32;;;;;;;;;6.00;5.00;;;;;22.96;46.69;100751.31;5019653;27;45549;-60
2021/07/07 09:07:02;;;;;;;;;5.00;5.00;;;;;22.98;46.36;100739.34;5028988;28;45438;-60
2021/07/07 09:09:38;;;;;;;;;6.25;5.00;;;;;22.94;46.43;100751.53;5008137;28;52245;-60
2021/07/07 09:12:16;;;;;;;;;4.00;4.00;;;;;22.90;46.26;100741.47;5015000;27;45469;-60
2021/07/07 09:14:44;;;;;;;;;5.25;5.25;;;;;22.86;46.52;100745.59;5014670;28;45657;-60
2021/07/07 09:17:11;;;;;;;;;6.00;5.00;;;;;22.85;46.26;100743.94;5017639;28;45464;-60
2021/07/07 09:19:38;;;;;;;;;8.00;7.00;;;;;22.85;46.69;100744.75;5024853;28;46128;-61
2021/07/07 09:22:07;;;;;;;;;4.75;4.75;;;;;22.85;46.25;100750.13;5034417;28;45320;-61
2021/07/07 09:24:33;;;;;;;;;7.00;5.00;;;;;22.86;46.58;100746.41;5021286;28;45365;-61
2021/07/07 09:27:02;;;;;;;;;7.00;6.00;;;;;22.87;46.71;100748.03;5033587;27;45473;-60
2021/07/07 09:29:53;;;;;;;;;4.75;4.00;;;;;22.86;46.94;100751.75;5038588;27;46032;-61
2021/07/07 09:32:27;;;;;;;;;5.25;5.00;;;;;22.82;47.19;100766.59;5030836;28;46919;-59
2021/07/07 09:34:56;;;;;;;;;5.75;5.00;;;;;22.77;46.46;100767.25;5013627;27;45262;-61
2021/07/07 09:37:34;;;;;;;;;6.00;5.75;;;;;22.79;46.53;100767.03;5040477;27;45342;-60
2021/07/07 09:39:59;;;;;;;;;5.25;4.75;;;;;22.79;46.33;100761.69;5051520;27;46416;-60
2021/07/07 09:42:29;;;;;;;;;4.75;4.75;;;;;22.82;46.60;100763.94;5048704;28;71219;-60
2021/07/07 09:44:57;;;;;;;;;4.00;4.00;;;;;22.85;46.42;100752.78;5028738;28;45517;-61
2021/07/07 09:47:22;;;;;;;;;7.00;5.50;;;;;22.89;46.47;100753.22;5039765;27;45561;-61
2021/07/07 09:49:48;;;;;;;;;5.75;5.25;;;;;22.92;46.52;100760.81;5066075;27;60494;-60
2021/07/07 09:52:21;;;;;;;;;6.75;4.75;;;;;22.95;46.08;100758.53;5027782;28;45452;-60
2021/07/07 09:54:47;;;;;;;;;9.50;6.25;;;;;22.98;46.01;100757.28;5048331;28;45464;-61
2021/07/07 09:57:13;;;;;;;;;8.00;7.00;;;;;23.02;46.01;100757.69;4980411;27;45174;-60
2021/07/07 09:59:39;;;;;;;;;4.25;4.25;;;;;23.10;45.01;100757.44;5004707;28;46215;-60
2021/07/07 10:02:04;;;;;;;;;4.25;4.25;;;;;23.13;45.46;100751.66;5047540;27;61823;-60
2021/07/07 10:04:33;;;;;;;;;5.00;5.00;;;;;23.16;45.32;100759.25;4978183;28;51314;-60
2021/07/07 10:06:59;;;;;;;;;6.00;5.75;;;;;23.19;45.10;100758.84;4981489;28;45648;-61
2021/07/07 10:09:25;;;;;;;;;8.00;6.50;;;;;23.20;44.65;100763.16;4982225;28;46429;-61
2021/07/07 10:11:51;;;;;;;;;5.50;5.00;;;;;23.21;44.50;100761.28;4990406;28;45837;-60
2021/07/07 10:14:16;;;;;;;;;5.50;5.25;;;;;23.20;44.00;100757.78;4971262;28;68435;-60
2021/07/07 10:16:41;;;;;;;;;5.00;5.00;;;;;23.19;44.75;100763.34;4985306;27;69267;-61
2021/07/07 10:19:07;;;;;;;;;6.00;5.00;;;;;23.23;44.90;100759.25;4997780;28;59459;-60
2021/07/07 10:21:32;;;;;;;;;5.00;4.00;;;;;23.29;44.10;100766.44;4997321;28;56878;-61
2021/07/07 10:23:58;;;;;;;;;7.00;5.00;;;;;23.34;43.80;100763.94;5014635;27;45315;-60
2021/07/07 10:26:23;;;;;;;;;7.25;7.00;;;;;23.39;44.44;100772.16;4985847;28;59754;-60
2021/07/07 10:28:49;;;;;;;;;5.75;4.50;;;;;23.43;44.41;100777.88;4975047;28;69338;-60
2021/07/07 10:31:14;;;;;;;;;5.25;5.00;;;;;23.47;44.08;100764.88;4964067;28;45992;-60
2021/07/07 10:33:40;;;;;;;;;4.75;4.75;;;;;23.51;44.64;100769.59;4987236;28;50818;-60
2021/07/07 10:36:25;;;;;;;;;7.75;5.25;;;;;23.55;44.27;100770.00;4986887;28;45581;-60
2021/07/07 10:38:54;;;;;;;;;6.25;6.00;;;;;23.55;44.22;100770.81;4994827;28;45458;-61
2021/07/07 10:41:41;;;;;;;;;11.75;7.75;;;;;23.59;44.23;100763.13;5004186;28;45835;-60
2021/07/07 10:44:28;;;;;;;;;6.00;6.00;;;;;23.64;44.74;100773.22;5002671;28;45436;-60
2021/07/07 10:46:59;;;;;;;;;7.00;6.00;;;;;23.67;43.97;100757.50;4991176;28;45580;-61
2021/07/07 10:49:25;;;;;;;;;7.50;6.00;;;;;23.72;43.98;100759.56;4999665;27;46376;-61
2021/07/07 10:51:54;;;;;;;;;6.00;6.00;;;;;23.73;44.12;100755.00;5010782;28;45474;-60
2021/07/07 10:54:20;;;;;;;;;7.50;6.00;;;;;23.75;43.75;100763.63;5021797;28;45635;-61
2021/07/07 10:56:46;;;;;;;;;7.75;6.50;;;;;23.79;44.26;100760.31;5022801;28;45518;-60
2021/07/07 10:59:31;;;;;;;;;6.50;6.50;;;;;23.85;43.58;100766.66;5024971;27;46191;-60
2021/07/07 11:01:58;;;;;;;;;3.00;3.00;;;;;23.94;43.41;100769.88;5013269;28;45855;-60
2021/07/07 11:04:44;;;;;;;;;6.00;6.00;;;;;24.03;44.13;100768.59;5014323;28;45336;-59
2021/07/07 11:07:31;;;;;;;;;7.75;7.00;;;;;24.10;43.29;100772.03;5041002;28;45638;-60
2021/07/07 11:10:01;;;;;;;;;6.25;5.00;;;;;24.18;43.13;100772.81;5029196;28;46177;-60
2021/07/07 11:12:35;;;;;;;;;5.00;5.00;;;;;24.25;43.13;100769.00;5031742;28;45824;-60
2021/07/07 11:15:09;;;;;;;;;7.25;5.00;;;;;24.34;42.92;100777.63;5021262;27;45497;-61
2021/07/07 11:17:35;;;;;;;;;6.25;6.25;;;;;24.47;42.17;100778.50;5025566;28;45518;-60
2021/07/07 11:20:05;;;;;;;;;10.00;6.50;;;;;24.59;42.17;100769.50;5035041;27;46008;-60
2021/07/07 11:22:31;;;;;;;;;6.00;5.00;;;;;24.65;41.77;100773.16;5027217;28;45394;-60
2021/07/07 11:24:57;;;;;;;;;5.50;5.25;;;;;24.68;42.01;100774.53;5052169;27;45328;-60
2021/07/07 11:27:23;;;;;;;;;6.50;5.75;;;;;24.71;42.18;100774.94;5032322;28;45599;-60
2021/07/07 11:29:48;;;;;;;;;7.00;6.50;;;;;24.70;41.79;100770.59;5034382;27;46143;-60
2021/07/07 11:32:24;;;;;;;;;6.50;5.00;;;;;24.72;41.09;100773.09;5046458;28;45512;-59
2021/07/07 11:34:57;;;;;;;;;6.25;6.25;;;;;24.73;40.83;100774.72;5068907;27;45291;-60
2021/07/07 11:37:24;;;;;;;;;4.75;4.75;;;;;24.77;39.90;100780.50;5028102;27;45225;-61
2021/07/07 11:40:18;;;;;;;;;7.75;5.00;;;;;24.81;39.81;100769.06;5051012;27;47072;-60
2021/07/07 11:43:04;;;;;;;;;4.00;4.00;;;;;24.91;40.13;100781.16;5062049;28;45327;-60
2021/07/07 11:45:36;;;;;;;;;4.25;4.00;;;;;24.98;40.41;100780.00;4981808;27;45469;-61
2021/07/07 11:50:42;;;;;;;;;3.75;3.00;;;;;25.05;40.33;100769.19;4984899;28;45970;-61
2021/07/07 11:53:07;;;;;;;;;7.25;5.25;;;;;25.04;40.16;100775.59;4995658;28;45932;-61
2021/07/07 11:55:51;;;;;;;;;8.00;6.00;;;;;24.98;40.90;100773.81;5028764;28;45405;-61
2021/07/07 11:58:39;;;;;;;;;5.25;5.25;;;;;24.89;40.83;100776.81;5030147;28;46779;-61